Time;durP1;ratioP1;P1;durP2;ratioP2;P2;SDS_P1;SDS_P2;PMS_P1;PMS_P2;Temp;Humidity;BMP_temperature;BMP_pressure;BME280_temperature;BME280_humidity;BME280_pressure;Samples;Min_cycle;Max_cycle;Signal;HPM_P1;HPM_P2
2022/01/12 00:01:09;;;;;;;5.00;2.27;;;0.90;81.70;0.00;99986.00;;;;5098157;28;20286;-78
2022/01/12 00:03:38;;;;;;;1.87;1.77;;;0.90;82.40;0.00;99987.00;;;;5116041;28;20216;-78
2022/01/12 00:06:05;;;;;;;1.83;1.73;;;0.90;82.50;-0.10;99982.00;;;;5115954;28;20218;-76
2022/01/12 00:08:32;;;;;;;1.87;1.63;;;0.90;82.30;-0.10;99972.00;;;;5098157;28;20293;-79
2022/01/12 00:10:59;;;;;;;1.83;1.73;;;0.90;82.10;-0.20;99984.00;;;;5116212;28;20201;-76
2022/01/12 00:13:28;;;;;;;5.67;1.60;;;0.80;82.00;-0.20;99980.00;;;;5115843;28;20302;-78
2022/01/12 00:15:56;;;;;;;1.87;1.70;;;0.80;82.50;-0.30;99987.00;;;;5097725;28;20587;-78
2022/01/12 00:18:25;;;;;;;1.93;1.63;;;0.80;82.30;-0.30;99984.00;;;;5115858;28;20281;-78
2022/01/12 00:20:54;;;;;;;1.80;1.70;;;0.70;82.10;-0.30;99991.00;;;;5115729;28;20214;-79
2022/01/12 00:23:22;;;;;;;3.53;3.27;;;0.70;82.90;-0.30;99986.00;;;;5115874;28;20191;-78
2022/01/12 00:26:01;;;;;;;1.67;1.57;;;0.70;83.10;-0.30;99984.00;;;;5115519;28;20221;-78
2022/01/12 00:34:08;;;;;;;2.50;2.07;;;0.60;83.20;-0.50;99997.00;;;;5115373;28;20684;-77
2022/01/12 00:36:36;;;;;;;5.43;1.87;;;0.60;83.50;-0.30;99997.00;;;;5097625;28;20306;-80
2022/01/12 00:39:06;;;;;;;2.17;2.03;;;0.60;84.10;-0.30;99989.00;;;;5115437;28;20253;-75
2022/01/12 00:41:37;;;;;;;1.93;1.83;;;0.70;83.90;-0.40;99988.00;;;;5115417;28;20231;-77
2022/01/12 00:44:07;;;;;;;4.07;2.10;;;0.60;83.10;-0.50;99994.00;;;;5124742;28;20192;-79
2022/01/12 00:46:37;;;;;;;1.73;1.60;;;0.50;83.50;-0.40;99997.00;;;;5128176;28;20218;-79
2022/01/12 00:49:04;;;;;;;2.60;1.50;;;0.50;84.30;-0.50;99992.00;;;;5122252;28;20343;-77
2022/01/12 00:51:32;;;;;;;2.03;1.93;;;0.50;84.20;-0.50;100006.00;;;;5116176;28;20754;-76
2022/01/12 00:54:01;;;;;;;2.03;1.93;;;0.50;84.10;-0.70;100009.00;;;;5115671;28;20201;-79
2022/01/12 00:56:28;;;;;;;1.80;1.70;;;0.40;84.10;-0.60;100006.00;;;;5117161;28;20300;-78
2022/01/12 00:58:57;;;;;;;4.17;2.93;;;0.50;84.60;-0.60;99999.00;;;;5127707;28;20222;-77
2022/01/12 01:01:24;;;;;;;2.10;1.97;;;0.40;84.30;-0.60;100012.00;;;;5108215;28;20233;-78
2022/01/12 01:03:52;;;;;;;1.13;1.13;;;0.40;85.10;-0.60;99975.00;;;;5115871;28;20250;-77
2022/01/12 01:06:20;;;;;;;2.37;2.17;;;0.30;84.10;-0.70;99999.00;;;;5115281;28;20309;-77
2022/01/12 01:08:50;;;;;;;1.03;1.03;;;0.30;84.30;-0.70;100010.00;;;;5115063;28;20553;-78
2022/01/12 01:11:17;;;;;;;1.67;1.57;;;0.30;84.10;-0.60;100018.00;;;;5114816;28;20194;-78
2022/01/12 01:13:55;;;;;;;1.40;1.30;;;0.40;84.20;-0.60;100015.00;;;;5114964;28;20285;-77
2022/01/12 01:16:26;;;;;;;1.73;1.63;;;0.40;84.00;-0.60;100004.00;;;;5096996;28;20221;-77
2022/01/12 01:27:07;;;;;;;3.20;1.77;;;0.30;83.50;-0.80;100000.00;;;;5114614;28;20542;-77
2022/01/12 01:29:34;;;;;;;1.13;1.13;;;0.20;83.40;-0.80;99997.00;;;;5114901;28;20798;-78
2022/01/12 01:32:01;;;;;;;1.77;1.67;;;0.20;83.80;-0.90;100010.00;;;;5114427;28;20292;-77
2022/01/12 01:34:28;;;;;;;1.60;1.60;;;0.20;83.80;-0.80;100007.00;;;;5114712;28;20226;-77
2022/01/12 01:36:56;;;;;;;2.77;1.80;;;0.20;84.20;-0.80;100013.00;;;;5096865;28;20600;-77
2022/01/12 01:39:26;;;;;;;1.87;1.73;;;0.10;84.30;-0.90;99997.00;;;;5096645;28;20263;-77
2022/01/12 01:42:07;;;;;;;2.60;1.93;;;0.20;84.10;-1.00;99995.00;;;;5114460;28;20269;-77
2022/01/12 01:55:37;;;;;;;1.90;1.80;;;0.10;83.90;-1.00;100003.00;;;;5114671;28;20220;-78
2022/01/12 01:58:04;;;;;;;2.37;2.00;;;0.00;84.30;-1.00;100002.00;;;;5114387;28;20213;-78
2022/01/12 02:00:32;;;;;;;1.93;1.83;;;0.00;84.90;-1.10;100006.00;;;;5114299;28;20198;-77
2022/01/12 02:03:00;;;;;;;1.43;1.27;;;-0.10;84.90;-1.20;100018.00;;;;5116343;28;20190;-78
2022/01/12 02:05:28;;;;;;;2.03;1.87;;;-0.10;85.30;-1.00;100025.00;;;;5117779;28;20665;-78
2022/01/12 02:07:54;;;;;;;1.97;1.87;;;-0.10;85.80;-1.20;100020.00;;;;5117906;28;20221;-78
2022/01/12 02:10:22;;;;;;;2.50;1.73;;;-0.10;85.10;-1.30;100029.00;;;;5117741;28;20228;-79
2022/01/12 02:12:48;;;;;;;1.03;1.03;;;-0.20;85.10;-1.40;100026.00;;;;5117690;28;20743;-79
2022/01/12 02:15:19;;;;;;;1.40;1.30;;;-0.30;85.50;-1.30;100033.00;;;;5099664;28;20283;-78
2022/01/12 02:18:01;;;;;;;0.93;0.93;;;-0.30;86.10;-1.30;100035.00;;;;5117766;28;20218;-78
2022/01/12 02:37:16;;;;;;;2.80;2.60;;;-0.40;86.30;-1.50;100014.00;;;;5117388;28;20669;-78
2022/01/12 02:39:57;;;;;;;2.57;2.00;;;-0.50;86.10;-1.40;100006.00;;;;5117367;28;20584;-78
2022/01/12 02:42:25;;;;;;;1.90;1.80;;;-0.40;85.80;-1.40;100000.00;;;;5099538;28;20209;-78
2022/01/12 02:50:44;;;;;;;1.90;1.73;;;-0.50;84.70;-1.50;99993.00;;;;5117411;28;20210;-77
2022/01/12 02:55:57;;;;;;;1.57;1.47;;;-0.50;84.70;-1.50;100006.00;;;;5117263;28;20198;-78
2022/01/12 02:58:23;;;;;;;2.93;2.17;;;-0.50;84.40;-1.60;100004.00;;;;5098952;28;20233;-77
2022/01/12 03:03:38;;;;;;;1.03;1.03;;;-0.60;84.40;-1.60;100011.00;;;;5099856;28;20212;-78
2022/01/12 03:06:07;;;;;;;2.17;2.07;;;-0.60;84.70;-1.60;100025.00;;;;5117432;28;20297;-78
2022/01/12 03:08:37;;;;;;;2.67;2.47;;;-0.60;85.10;-1.60;99991.00;;;;5103936;28;20210;-79
2022/01/12 03:11:07;;;;;;;3.37;3.13;;;-0.60;85.10;-1.80;100020.00;;;;5120380;28;20609;-80
2022/01/12 03:13:34;;;;;;;2.63;2.27;;;-0.70;85.30;-1.70;100016.00;;;;5116792;28;20222;-78
2022/01/12 03:16:08;;;;;;;1.50;1.40;;;-0.70;85.70;-2.00;100014.00;;;;5116831;28;20668;-78
2022/01/12 03:18:34;;;;;;;1.63;1.53;;;-0.80;84.80;-2.30;100008.00;;;;5116579;28;20282;-78
2022/01/12 03:21:07;;;;;;;2.83;2.07;;;-1.00;85.40;-2.20;100008.00;;;;5098934;28;20543;-78
2022/01/12 03:23:34;;;;;;;0.83;0.83;;;-1.10;86.30;-2.20;100015.00;;;;5116767;28;20617;-78
2022/01/12 03:26:03;;;;;;;1.47;1.40;;;-1.00;86.50;-1.90;100033.00;;;;5098587;28;20233;-79
2022/01/12 03:28:33;;;;;;;1.10;1.10;;;-0.90;87.40;-1.90;100026.00;;;;5116735;28;20265;-77
2022/01/12 03:31:07;;;;;;;1.33;1.30;;;-0.90;87.10;-2.10;100026.00;;;;5116660;28;20208;-78
2022/01/12 03:33:54;;;;;;;1.60;1.50;;;-0.90;86.50;-2.00;100033.00;;;;5098551;28;20648;-77
2022/01/12 03:39:10;;;;;;;1.33;1.33;;;-0.90;87.00;-2.10;100035.00;;;;5098868;28;20233;-79
2022/01/12 03:41:38;;;;;;;0.80;0.80;;;-0.90;87.30;-2.10;100028.00;;;;5116451;28;20206;-77
2022/01/12 03:44:08;;;;;;;2.77;1.83;;;-1.00;86.80;-1.90;100022.00;;;;5116440;28;20258;-78
2022/01/12 03:46:39;;;;;;;2.30;2.13;;;-0.90;87.50;-1.80;100020.00;;;;5116352;28;20625;-79
2022/01/12 03:49:05;;;;;;;6.80;1.93;;;-0.90;86.70;-1.90;100027.00;;;;5116338;28;20209;-79
2022/01/12 03:51:33;;;;;;;21.13;1.40;;;-0.80;85.90;-1.80;100026.00;;;;5116149;28;20701;-79
2022/01/12 03:53:59;;;;;;;1.87;1.77;;;-0.90;86.00;-1.80;100034.00;;;;5116264;28;20197;-81
2022/01/12 03:56:26;;;;;;;1.70;1.60;;;-0.80;85.60;-1.90;100042.00;;;;5116183;28;20274;-78
2022/01/12 03:58:52;;;;;;;1.03;1.03;;;-0.90;85.60;-2.00;100035.00;;;;5116029;28;20309;-78
2022/01/12 04:01:20;;;;;;;5.30;1.67;;;-0.90;85.70;-1.90;100056.00;;;;5115943;28;20224;-77
2022/01/12 04:03:58;;;;;;;1.17;1.17;;;-0.90;85.90;-1.90;100043.00;;;;5116066;28;20210;-78
2022/01/12 04:09:09;;;;;;;1.23;1.23;;;-0.90;86.00;-1.90;100048.00;;;;5115876;28;20193;-78
2022/01/12 04:11:36;;;;;;;1.53;1.50;;;-0.90;85.70;-2.00;100040.00;;;;5097859;28;20243;-78
2022/01/12 04:14:04;;;;;;;2.30;1.90;;;-1.00;85.50;-2.10;100038.00;;;;5098096;28;20243;-78
2022/01/12 04:16:31;;;;;;;0.97;0.97;;;-1.00;85.50;-2.10;100037.00;;;;5115811;28;20237;-79
2022/01/12 04:18:58;;;;;;;1.40;1.40;;;-1.10;85.40;-2.00;100033.00;;;;5097892;28;20237;-78
2022/01/12 04:21:28;;;;;;;1.73;1.63;;;-1.10;85.60;-2.20;100032.00;;;;5115959;28;20190;-78
2022/01/12 04:23:56;;;;;;;0.90;0.90;;;-1.10;85.00;-2.10;100039.00;;;;5115757;28;20257;-79
2022/01/12 04:26:24;;;;;;;1.97;1.87;;;-1.00;85.60;-2.20;100032.00;;;;5115122;28;20190;-78
2022/01/12 04:28:51;;;;;;;1.73;1.63;;;-1.10;84.80;-2.20;100026.00;;;;5115649;28;20190;-78
2022/01/12 04:31:19;;;;;;;3.23;2.93;;;-1.10;85.00;-2.20;100015.00;;;;5115595;28;20528;-77
2022/01/12 04:33:50;;;;;;;2.20;2.00;;;-1.20;85.00;-2.20;100043.00;;;;5116651;28;20304;-78
2022/01/12 04:36:16;;;;;;;2.43;2.33;;;-1.20;84.90;-2.20;100043.00;;;;5127246;28;20207;-79
2022/01/12 04:38:45;;;;;;;2.70;2.60;;;-1.20;85.00;-2.40;100052.00;;;;5129752;28;20229;-78
2022/01/12 04:41:13;;;;;;;1.63;1.53;;;-1.30;84.70;-2.40;100046.00;;;;5116835;28;20299;-78
2022/01/12 04:43:42;;;;;;;1.83;1.73;;;-1.30;85.30;-2.40;100054.00;;;;5098988;28;20254;-78
2022/01/12 04:51:44;;;;;;;4.10;1.43;;;-1.30;85.00;-2.40;100078.00;;;;5108519;28;20327;-78
2022/01/12 04:54:12;;;;;;;1.23;1.23;;;-1.30;85.30;-2.40;100061.00;;;;5119538;28;20209;-77
2022/01/12 04:56:38;;;;;;;1.73;1.63;;;-1.30;85.10;-2.40;100053.00;;;;5115963;28;20219;-77
2022/01/12 04:59:07;;;;;;;1.33;1.33;;;-1.30;85.40;-2.50;100074.00;;;;5115724;28;20253;-77
2022/01/12 05:01:37;;;;;;;2.33;2.20;;;-1.40;85.50;-2.40;100090.00;;;;5115149;28;20209;-77
2022/01/12 05:07:11;;;;;;;2.03;1.93;;;-1.30;86.10;-2.40;100086.00;;;;5115181;28;20221;-77
2022/01/12 05:10:00;;;;;;;1.47;1.40;;;-1.30;85.70;-2.50;100087.00;;;;5115014;28;20566;-77
2022/01/12 05:15:21;;;;;;;2.33;2.17;;;-1.40;86.40;-2.50;100088.00;;;;5115094;28;20211;-78
2022/01/12 05:17:48;;;;;;;3.50;1.87;;;-1.40;85.40;-2.50;100105.00;;;;5115069;28;20228;-77
2022/01/12 05:20:15;;;;;;;1.47;1.40;;;-1.40;85.60;-2.60;100102.00;;;;5114954;28;20208;-77
2022/01/12 05:22:42;;;;;;;2.33;2.13;;;-1.50;85.10;-2.60;100102.00;;;;5115550;28;20200;-79
2022/01/12 05:25:09;;;;;;;1.37;1.30;;;-1.50;85.60;-2.50;100096.00;;;;5097638;28;20217;-79
2022/01/12 05:27:36;;;;;;;1.70;1.60;;;-1.60;85.70;-2.50;100109.00;;;;5125023;28;20200;-77
2022/01/12 05:30:03;;;;;;;1.10;1.10;;;-1.50;85.60;-2.50;100115.00;;;;5124859;28;20280;-77
2022/01/12 05:32:30;;;;;;;2.03;1.93;;;-1.40;85.20;-2.50;100117.00;;;;5114920;28;20228;-77
2022/01/12 05:35:00;;;;;;;1.47;1.37;;;-1.50;85.30;-2.50;100120.00;;;;5114512;28;20220;-77
2022/01/12 05:37:28;;;;;;;1.20;1.20;;;-1.50;85.60;-2.50;100133.00;;;;5113286;28;20221;-77
2022/01/12 05:39:54;;;;;;;2.33;2.17;;;-1.50;85.60;-2.60;100119.00;;;;5114458;28;20198;-77
2022/01/12 05:42:21;;;;;;;1.17;1.10;;;-1.50;85.20;-2.70;100109.00;;;;5114557;28;20274;-77
2022/01/12 05:44:47;;;;;;;1.73;1.63;;;-1.60;85.50;-2.70;100103.00;;;;5114358;28;20307;-78
2022/01/12 05:47:32;;;;;;;1.53;1.43;;;-1.60;85.10;-2.70;100103.00;;;;5114576;28;20257;-77
2022/01/12 05:49:58;;;;;;;1.67;1.57;;;-1.60;85.30;-2.60;100105.00;;;;5114282;28;20201;-77
2022/01/12 05:52:25;;;;;;;2.03;1.83;;;-1.60;85.50;-2.80;100112.00;;;;5114369;28;20561;-77
2022/01/12 05:54:54;;;;;;;0.97;0.97;;;-1.70;84.50;-2.90;100127.00;;;;5114394;28;20623;-78
2022/01/12 05:57:20;;;;;;;1.10;1.10;;;-1.70;85.30;-2.70;100130.00;;;;5114250;28;20588;-77
2022/01/12 05:59:49;;;;;;;1.97;1.43;;;-1.70;85.80;-2.60;100131.00;;;;5114462;28;20197;-77
2022/01/12 06:02:18;;;;;;;1.47;1.37;;;-1.60;85.50;-2.60;100137.00;;;;5102013;28;20232;-77
2022/01/12 06:04:47;;;;;;;1.73;1.67;;;-1.60;85.50;-2.60;100144.00;;;;5115990;28;20234;-77
2022/01/12 06:07:15;;;;;;;1.43;1.43;;;-1.60;85.30;-2.60;100141.00;;;;5114155;28;20200;-77
2022/01/12 06:09:42;;;;;;;1.40;1.30;;;-1.60;85.10;-2.70;100135.00;;;;5114085;28;20236;-77
2022/01/12 06:12:11;;;;;;;0.97;0.97;;;-1.60;85.10;-2.70;100136.00;;;;5113935;28;20586;-78
2022/01/12 06:14:37;;;;;;;2.70;2.13;;;-1.60;84.90;-2.70;100141.00;;;;5114226;28;20200;-78
2022/01/12 06:17:04;;;;;;;1.67;1.57;;;-1.60;84.90;-2.90;100160.00;;;;5114034;28;20221;-78
2022/01/12 06:19:31;;;;;;;1.23;1.23;;;-1.70;85.00;-2.80;100165.00;;;;5113958;28;20337;-77
2022/01/12 06:21:57;;;;;;;1.50;1.40;;;-1.70;85.50;-2.90;100155.00;;;;5113944;28;20348;-78
2022/01/12 06:24:24;;;;;;;1.67;1.57;;;-1.70;85.30;-2.80;100157.00;;;;5113952;28;20307;-77
2022/01/12 06:26:51;;;;;;;2.73;1.87;;;-1.70;85.80;-3.00;100141.00;;;;5096120;28;20219;-78
2022/01/12 06:29:31;;;;;;;2.30;2.20;;;-1.80;85.40;-3.00;100148.00;;;;5114231;28;20556;-78
2022/01/12 06:31:59;;;;;;;1.30;1.27;;;-1.80;85.40;-3.00;100151.00;;;;5113970;28;20231;-78
2022/01/12 06:34:25;;;;;;;1.67;1.57;;;-1.80;85.90;-3.00;100139.00;;;;5114162;28;20202;-78
2022/01/12 06:36:52;;;;;;;2.20;2.00;;;-1.90;85.60;-2.90;100143.00;;;;5113882;28;20261;-78
2022/01/12 06:39:20;;;;;;;1.53;1.50;;;-1.90;86.20;-2.90;100124.00;;;;5114009;28;20201;-78
2022/01/12 06:41:52;;;;;;;1.73;1.63;;;-1.90;86.10;-2.90;100127.00;;;;5113888;28;20214;-77
2022/01/12 06:44:25;;;;;;;2.03;1.93;;;-1.80;86.80;-2.80;100129.00;;;;5113676;28;20308;-78
2022/01/12 06:46:54;;;;;;;2.17;2.07;;;-1.80;86.10;-2.80;100123.00;;;;5113923;28;20204;-79
2022/01/12 06:49:21;;;;;;;2.10;2.00;;;-1.80;86.70;-2.80;100136.00;;;;5116381;28;20219;-77
2022/01/12 06:51:48;;;;;;;1.10;1.10;;;-1.80;85.90;-2.90;100138.00;;;;5117093;28;20329;-77
2022/01/12 06:54:16;;;;;;;1.60;1.53;;;-1.80;85.70;-2.70;100150.00;;;;5099057;28;20517;-78
2022/01/12 06:56:43;;;;;;;2.23;2.13;;;-1.80;86.60;-2.80;100148.00;;;;5099136;28;20233;-77
2022/01/12 06:59:09;;;;;;;1.43;1.33;;;-1.80;85.50;-3.00;100141.00;;;;5117294;28;20203;-78
2022/01/12 07:01:36;;;;;;;2.60;2.43;;;-1.90;85.50;-3.10;100146.00;;;;5117843;28;20193;-78
2022/01/12 07:04:05;;;;;;;1.63;1.53;;;-1.90;85.90;-3.10;100145.00;;;;5117161;28;20273;-79
2022/01/12 07:06:32;;;;;;;3.20;2.47;;;-2.00;86.30;-2.90;100147.00;;;;5117393;28;20208;-80
2022/01/12 07:08:58;;;;;;;5.13;3.13;;;-1.90;86.80;-2.90;100144.00;;;;5099181;28;20241;-78
2022/01/12 07:11:25;;;;;;;2.17;2.07;;;-1.80;86.40;-2.90;100157.00;;;;5099247;28;20290;-78
2022/01/12 07:13:51;;;;;;;2.00;1.90;;;-1.80;86.20;-2.90;100146.00;;;;5116755;28;20209;-80
2022/01/12 07:16:20;;;;;;;1.93;1.83;;;-1.80;85.80;-2.90;100146.00;;;;5098668;28;20205;-77
2022/01/12 07:18:47;;;;;;;3.07;2.50;;;-1.80;86.20;-2.90;100153.00;;;;5098840;28;20240;-77
2022/01/12 07:21:14;;;;;;;2.33;2.13;;;-1.80;85.90;-2.90;100146.00;;;;5116480;28;20209;-77
2022/01/12 07:23:41;;;;;;;3.50;2.57;;;-1.80;85.40;-3.00;100143.00;;;;5116604;28;20522;-77
2022/01/12 07:26:10;;;;;;;1.57;1.57;;;-1.80;85.50;-2.80;100146.00;;;;5098745;28;20235;-84
2022/01/12 07:28:36;;;;;;;2.80;2.20;;;-1.80;85.90;-2.80;100147.00;;;;5098898;28;20221;-82
2022/01/12 07:31:03;;;;;;;2.90;2.70;;;-1.80;86.00;-3.00;100155.00;;;;5116330;28;20686;-75
2022/01/12 07:33:29;;;;;;;2.03;1.83;;;-1.70;86.40;-2.90;100149.00;;;;5098774;28;20294;-74
2022/01/12 07:35:57;;;;;;;4.00;1.33;;;-1.80;86.80;-2.90;100157.00;;;;5116508;28;20201;-76
2022/01/12 07:38:23;;;;;;;0.70;0.70;;;-1.80;87.50;-2.60;100174.00;;;;5116305;28;20250;-75
2022/01/12 07:40:52;;;;;;;2.57;1.87;;;-1.60;88.40;-2.60;100169.00;;;;5116270;28;20227;-74
2022/01/12 07:43:19;;;;;;;2.70;2.50;;;-1.50;88.40;-2.60;100185.00;;;;5116409;28;20308;-75
2022/01/12 07:45:45;;;;;;;1.47;1.27;;;-1.50;88.60;-2.50;100209.00;;;;5116397;28;20649;-76
2022/01/12 07:48:15;;;;;;;3.20;1.27;;;-1.40;88.60;-2.30;100215.00;;;;5116268;28;20209;-75
2022/01/12 07:50:44;;;;;;;2.97;2.73;;;-1.40;89.00;-2.50;100216.00;;;;5116193;28;20197;-76
2022/01/12 07:53:12;;;;;;;3.80;3.33;;;-1.40;87.50;-2.40;100228.00;;;;5116024;28;20198;-76
2022/01/12 07:55:38;;;;;;;3.63;2.93;;;-1.40;88.20;-2.30;100240.00;;;;5098674;28;20232;-77
2022/01/12 07:58:05;;;;;;;1.67;1.57;;;-1.30;87.90;-2.30;100250.00;;;;5116089;28;20225;-76
2022/01/12 08:00:35;;;;;;;1.27;1.27;;;-1.30;86.90;-2.50;100266.00;;;;5115226;28;20209;-75
2022/01/12 08:03:01;;;;;;;1.80;1.67;;;-1.30;86.60;-2.50;100264.00;;;;5116083;28;20190;-75
2022/01/12 08:05:28;;;;;;;2.13;2.03;;;-1.40;86.40;-2.40;100256.00;;;;5098037;28;20206;-75
2022/01/12 08:07:55;;;;;;;4.50;2.43;;;-1.40;86.70;-2.60;100246.00;;;;5115835;28;20656;-76
2022/01/12 08:10:23;;;;;;;2.37;2.10;;;-1.40;86.20;-2.50;100234.00;;;;5115832;28;20197;-75
2022/01/12 08:12:49;;;;;;;2.33;2.17;;;-1.40;86.50;-2.30;100230.00;;;;5115764;28;20196;-74
2022/01/12 08:15:16;;;;;;;2.00;1.90;;;-1.30;87.20;-2.30;100245.00;;;;5115644;28;20641;-76
2022/01/12 08:17:42;;;;;;;1.90;1.77;;;-1.30;86.60;-2.30;100237.00;;;;5115706;28;20213;-75
2022/01/12 08:20:14;;;;;;;2.77;2.37;;;-1.20;87.20;-2.10;100242.00;;;;5115608;28;20212;-76
2022/01/12 08:22:43;;;;;;;1.37;1.37;;;-1.10;87.20;-2.00;100255.00;;;;5115697;28;20197;-74
2022/01/12 08:25:12;;;;;;;1.93;1.83;;;-0.90;86.40;-1.90;100266.00;;;;5115660;28;20201;-76
2022/01/12 08:27:42;;;;;;;3.37;2.97;;;-0.90;87.10;-1.70;100270.00;;;;5115622;28;20549;-74
2022/01/12 08:30:16;;;;;;;5.37;2.30;;;-0.80;87.50;-1.70;100256.00;;;;5120188;28;20277;-73
2022/01/12 08:32:43;;;;;;;2.03;1.87;;;-0.70;86.70;-1.80;100250.00;;;;5116269;28;20190;-73
2022/01/12 08:35:10;;;;;;;4.57;3.17;;;-0.70;86.10;-2.00;100206.00;;;;5116032;28;20226;-74
2022/01/12 08:37:37;;;;;;;2.40;2.23;;;-0.80;85.90;-1.90;100242.00;;;;5115354;28;20214;-76
2022/01/12 08:40:06;;;;;;;2.60;2.40;;;-0.80;86.80;-1.70;100250.00;;;;5115438;28;20324;-76
2022/01/12 08:42:34;;;;;;;3.50;3.23;;;-0.70;86.90;-1.70;100261.00;;;;5118329;28;20198;-77
2022/01/12 08:45:02;;;;;;;8.90;2.93;;;-0.60;86.40;-1.70;100264.00;;;;5119901;28;20233;-77
2022/01/12 08:47:29;;;;;;;3.10;2.63;;;-0.60;86.50;-1.60;100253.00;;;;5117657;28;20558;-77
2022/01/12 08:49:56;;;;;;;2.93;2.73;;;-0.60;86.80;-1.60;100251.00;;;;5116886;28;20204;-76
2022/01/12 08:52:23;;;;;;;2.87;2.67;;;-0.60;86.90;-1.60;100248.00;;;;5116147;28;20533;-76
2022/01/12 08:54:50;;;;;;;4.23;3.30;;;-0.60;86.90;-1.50;100247.00;;;;5115126;28;20206;-74
2022/01/12 08:57:17;;;;;;;3.63;3.20;;;-0.50;87.10;-1.40;100255.00;;;;5114851;28;20209;-74
2022/01/12 08:59:44;;;;;;;6.83;3.70;;;-0.40;88.10;-1.20;100265.00;;;;5115082;28;20524;-75
2022/01/12 09:02:13;;;;;;;1.60;1.53;;;-0.30;87.00;-1.20;100265.00;;;;5114859;28;20194;-76
2022/01/12 09:04:39;;;;;;;2.73;2.43;;;-0.30;86.80;-1.20;100253.00;;;;5114975;28;20229;-74
2022/01/12 09:07:07;;;;;;;1.70;1.60;;;-0.20;86.70;-1.10;100250.00;;;;5114923;28;20293;-76
2022/01/12 09:09:35;;;;;;;2.80;2.60;;;-0.10;86.30;-0.90;100258.00;;;;5114883;28;20204;-74
2022/01/12 09:12:03;;;;;;;1.97;1.83;;;0.00;86.40;-0.90;100275.00;;;;5114774;28;20249;-76
2022/01/12 09:14:30;;;;;;;1.83;1.73;;;0.10;85.90;-0.90;100281.00;;;;5114994;28;20257;-75
2022/01/12 09:16:59;;;;;;;2.10;2.00;;;0.10;86.00;-0.90;100282.00;;;;5114619;28;20652;-75
2022/01/12 09:19:28;;;;;;;1.83;1.73;;;0.10;85.90;-0.90;100290.00;;;;5096890;28;20205;-76
2022/01/12 09:21:56;;;;;;;1.53;1.43;;;0.20;85.70;-0.80;100298.00;;;;5114702;28;20311;-77
2022/01/12 09:24:25;;;;;;;1.83;1.73;;;0.30;85.80;-0.70;100294.00;;;;5096866;28;20743;-73
2022/01/12 09:26:51;;;;;;;1.63;1.40;;;0.30;85.60;-0.50;100284.00;;;;5114690;28;20277;-76
2022/01/12 09:29:18;;;;;;;2.17;2.00;;;0.50;85.90;-0.30;100281.00;;;;5114659;28;20284;-74
2022/01/12 09:31:45;;;;;;;3.63;2.13;;;0.60;84.80;-0.20;100285.00;;;;5114839;28;20202;-76
2022/01/12 09:34:11;;;;;;;2.23;1.60;;;0.70;83.90;0.00;100288.00;;;;5096874;28;20292;-76
2022/01/12 09:36:41;;;;;;;2.87;1.67;;;0.90;82.70;0.10;100285.00;;;;5114393;28;20297;-77
2022/01/12 09:39:10;;;;;;;3.80;2.07;;;1.00;82.30;0.20;100285.00;;;;5114520;28;20195;-74
2022/01/12 09:41:37;;;;;;;2.37;2.17;;;1.10;81.60;0.30;100299.00;;;;5114523;28;20237;-74
2022/01/12 09:44:05;;;;;;;1.87;1.80;;;1.10;81.30;0.40;100314.00;;;;5114515;28;20208;-74
2022/01/12 09:46:32;;;;;;;1.23;1.23;;;1.30;81.10;0.40;100317.00;;;;5114582;28;20195;-74
2022/01/12 09:49:01;;;;;;;1.10;1.10;;;1.30;80.50;0.40;100322.00;;;;5096393;28;20226;-77
2022/01/12 09:51:28;;;;;;;2.30;2.10;;;1.30;79.20;0.40;100326.00;;;;5114377;28;20199;-77
2022/01/12 09:53:56;;;;;;;1.53;1.43;;;1.40;79.20;0.50;100335.00;;;;5096480;28;20694;-74
2022/01/12 09:56:25;;;;;;;1.93;1.83;;;1.40;79.10;0.60;100332.00;;;;5114292;28;20195;-74
2022/01/12 09:58:54;;;;;;;1.73;1.63;;;1.50;79.20;0.60;100324.00;;;;5096323;28;20254;-74
2022/01/12 10:01:28;;;;;;;1.47;1.47;;;1.50;79.30;0.70;100337.00;;;;5114240;28;20309;-75
2022/01/12 10:04:09;;;;;;;1.53;1.47;;;1.50;78.60;0.80;100335.00;;;;5096462;28;20229;-75
2022/01/12 10:06:37;;;;;;;2.97;2.27;;;1.60;78.50;0.80;100323.00;;;;5114052;28;20564;-77
2022/01/12 10:09:05;;;;;;;1.40;1.30;;;1.70;77.90;0.90;100300.00;;;;5114192;28;20306;-75
2022/01/12 10:11:34;;;;;;;1.87;1.77;;;1.70;78.10;0.80;100331.00;;;;5096208;28;20634;-74
2022/01/12 10:14:02;;;;;;;1.10;1.10;;;1.70;77.80;0.70;100336.00;;;;5113965;28;20682;-74
2022/01/12 10:16:30;;;;;;;1.00;1.00;;;1.80;78.10;0.90;100339.00;;;;5114176;28;20299;-74
2022/01/12 10:19:00;;;;;;;3.40;2.37;;;1.80;78.20;0.90;100336.00;;;;5113977;28;20284;-75
2022/01/12 10:21:34;;;;;;;2.80;1.87;;;1.80;77.80;0.90;100322.00;;;;5096077;28;20201;-75
2022/01/12 10:24:06;;;;;;;2.53;2.33;;;1.90;77.20;1.00;100310.00;;;;5098091;28;20228;-75
2022/01/12 10:26:37;;;;;;;1.93;1.83;;;1.90;76.80;1.00;100333.00;;;;5117661;28;20307;-76
2022/01/12 10:29:11;;;;;;;2.10;2.00;;;1.90;77.40;1.10;100338.00;;;;5117448;28;20289;-74
2022/01/12 10:32:00;;;;;;;2.13;1.97;;;1.90;76.50;1.20;100348.00;;;;5117498;28;20194;-74
2022/01/12 10:34:30;;;;;;;1.33;1.33;;;2.00;76.20;1.20;100346.00;;;;5117443;28;20218;-75
2022/01/12 10:36:58;;;;;;;1.57;1.47;;;2.10;75.80;1.20;100342.00;;;;5117343;28;20200;-76
2022/01/12 10:39:27;;;;;;;4.70;2.60;;;2.20;75.30;1.50;100350.00;;;;5117327;28;20238;-77
2022/01/12 10:42:03;;;;;;;1.73;1.57;;;2.20;75.10;1.30;100354.00;;;;5117374;28;20276;-74
2022/01/12 10:44:32;;;;;;;1.50;1.40;;;2.20;74.40;1.50;100331.00;;;;5099608;28;20212;-73
2022/01/12 10:47:13;;;;;;;1.00;1.00;;;2.30;74.60;1.40;100307.00;;;;5117276;28;20193;-74
2022/01/12 10:49:43;;;;;;;1.83;1.73;;;2.30;73.50;1.40;100352.00;;;;5099293;28;20290;-75
2022/01/12 10:52:12;;;;;;;0.90;0.90;;;2.40;73.50;1.60;100357.00;;;;5117117;28;20631;-76
2022/01/12 10:54:49;;;;;;;1.80;1.70;;;2.40;73.20;1.60;100359.00;;;;5117245;28;20283;-74
2022/01/12 10:57:23;;;;;;;3.17;1.73;;;2.50;72.90;1.80;100338.00;;;;5116910;28;20216;-76
2022/01/12 11:00:10;;;;;;;2.37;2.20;;;2.60;72.30;2.00;100352.00;;;;5117095;28;20212;-75
2022/01/12 11:02:39;;;;;;;2.00;1.90;;;2.70;71.40;2.00;100308.00;;;;5117070;28;20566;-76
2022/01/12 11:05:08;;;;;;;2.77;2.37;;;2.80;70.50;2.10;100339.00;;;;5116961;28;20248;-76
2022/01/12 11:07:35;;;;;;;2.40;2.30;;;2.90;70.60;2.10;100330.00;;;;5099247;28;20485;-76
2022/01/12 11:10:09;;;;;;;2.20;1.57;;;2.90;69.40;2.30;100326.00;;;;5116821;28;20221;-77
2022/01/12 11:12:37;;;;;;;2.57;2.23;;;3.10;68.80;2.20;100297.00;;;;5099156;28;20296;-76
2022/01/12 11:15:08;;;;;;;1.33;1.30;;;3.10;67.50;2.30;100339.00;;;;5116856;28;20212;-77
2022/01/12 11:17:34;;;;;;;1.37;1.27;;;3.10;68.10;2.40;100340.00;;;;5116533;28;20233;-76
2022/01/12 11:20:14;;;;;;;2.23;2.13;;;3.10;68.10;2.50;100345.00;;;;5116892;28;20199;-75
2022/01/12 11:23:00;;;;;;;1.80;1.70;;;3.30;67.50;2.60;100333.00;;;;5098967;28;20289;-78
2022/01/12 11:25:33;;;;;;;1.37;1.27;;;3.30;66.80;2.50;100326.00;;;;5098793;28;20216;-75
2022/01/12 11:28:12;;;;;;;2.27;2.03;;;3.30;66.20;2.70;100305.00;;;;5098262;28;20249;-75
2022/01/12 11:30:45;;;;;;;1.43;1.37;;;3.40;66.10;2.70;100313.00;;;;5116636;28;20217;-75
2022/01/12 11:33:13;;;;;;;1.33;1.23;;;3.50;64.90;2.70;100309.00;;;;5116604;28;20524;-76
2022/01/12 11:35:43;;;;;;;3.80;1.93;;;3.50;63.50;2.70;100303.00;;;;5115060;28;20230;-75
2022/01/12 11:38:23;;;;;;;1.33;1.23;;;3.60;63.80;2.80;100290.00;;;;5098573;28;20279;-76
2022/01/12 11:40:55;;;;;;;1.23;1.23;;;3.60;62.60;2.80;100280.00;;;;5116623;28;20696;-79
2022/01/12 11:43:28;;;;;;;1.10;1.10;;;3.60;62.00;2.70;100280.00;;;;5116371;28;20263;-75
2022/01/12 11:46:05;;;;;;;1.47;1.47;;;3.60;61.40;2.80;100273.00;;;;5116423;28;20217;-76
2022/01/12 11:48:34;;;;;;;1.63;1.53;;;3.60;61.90;2.90;100265.00;;;;5116089;28;20236;-76
2022/01/12 11:51:01;;;;;;;0.97;0.97;;;3.70;60.80;2.90;100261.00;;;;5116367;28;20201;-76
2022/01/12 11:53:30;;;;;;;1.47;1.47;;;3.70;61.70;3.10;100267.00;;;;5116240;28;20229;-83
2022/01/12 11:56:12;;;;;;;2.27;2.00;;;3.80;61.10;3.20;100237.00;;;;5116726;28;20672;-80
2022/01/12 11:58:58;;;;;;;2.87;2.67;;;4.00;61.10;3.50;100245.00;;;;5099828;28;20229;-82
2022/01/12 12:01:37;;;;;;;2.43;1.70;;;4.30;59.80;4.00;100245.00;;;;5100442;28;20205;-78
2022/01/12 12:04:06;;;;;;;2.03;1.87;;;4.60;59.70;4.60;100236.00;;;;5121358;28;20212;-78
2022/01/12 12:06:35;;;;;;;0.77;0.77;;;5.00;59.90;5.00;100238.00;;;;5118315;28;20190;-75
2022/01/12 12:09:06;;;;;;;1.97;1.87;;;5.30;57.50;5.40;100215.00;;;;5116381;28;20218;-76
2022/01/12 12:11:36;;;;;;;1.50;1.40;;;5.70;56.90;5.60;100241.00;;;;5106408;28;20485;-77